• Join FlightAware (Why Join?)
  • Login
  • US Flag 
04:09PM EST


 

Airport Tracker/Info


-or-


 

Live Flight TrackerFlight Track Log ✈ N1259W ✈ 25-May-2013 ✈ TJBQ / BQN - TGPY / GND

Flight Track Log - Related Links

Times and Time Zones

All times are in EDT time to prevent confusion due to time zone crossing. See the N1259W flight status page for this flight to view local times or setup timezone preferences in your user account.

Time Position Orientation Groundspeed Altitude Reporting Facility
EDT Latitude Longitude Course Direction KTS MPH feet Rate Location/Type
06:12PM 18.4667 -67.0667 109° East 170 196 1,900  Level San Juan Center
06:13PM 18.4500 -67.0167 109° East 140 161 3,700 1,680 Climbing San Juan Center
06:14PM 18.4333 -66.9833 118° Southeast 140 161 5,300 1,500 Climbing San Juan Center
06:15PM 18.4167 -66.9500 118° Southeast 160 184 6,800 1,380 Climbing San Juan Center
06:16PM 18.4000 -66.9167 118° Southeast 150 173 8,200 1,380 Climbing San Juan Center
06:17PM 18.3667 -66.8833 136° Southeast 160 184 9,700 1,260 Climbing San Juan Center
06:18PM 18.3333 -66.8667 155° Southeast 190 219 10,800 1,140 Climbing San Juan Center
06:19PM 18.3000 -66.8333 136° Southeast 170 196 12,000 1,140 Climbing San Juan Center
06:20PM 18.2500 -66.8000 148° Southeast 170 196 13,200 1,200 Climbing San Juan Center
06:21PM 18.2167 -66.7667 136° Southeast 170 196 14,500 1,140 Climbing San Juan Center
06:22PM 18.1833 -66.7333 136° Southeast 180 207 15,500 960 Climbing San Juan Center
06:23PM 18.1333 -66.7000 148° Southeast 200 230 16,500 1,080 Climbing San Juan Center
06:24PM 18.1000 -66.6667 136° Southeast 180 207 17,700 1,020 Climbing San Juan Center
06:25PM 18.0667 -66.6333 136° Southeast 180 207 18,600 840 Climbing San Juan Center
06:26PM 18.0167 -66.6000 148° Southeast 190 219 19,500 840 Climbing San Juan Center
06:27PM 17.9833 -66.5667 136° Southeast 180 207 20,300 720 Climbing San Juan Center
06:28PM 17.9333 -66.5333 148° Southeast 190 219 21,000 780 Climbing San Juan Center
06:29PM 17.9000 -66.5000 136° Southeast 190 219 21,900 840 Climbing San Juan Center
06:30PM 17.8500 -66.4667 148° Southeast 190 219 22,700 840 Climbing San Juan Center
06:31PM 17.8167 -66.4333 136° Southeast 200 230 23,600 840 Climbing San Juan Center
06:32PM 17.7667 -66.4000 148° Southeast 200 230 24,400 780 Climbing San Juan Center
06:33PM 17.7167 -66.3500 136° Southeast 200 230 25,200 780 Climbing San Juan Center
06:34PM 17.6833 -66.3167 136° Southeast 210 242 26,000 840 Climbing San Juan Center
06:35PM 17.6333 -66.2833 148° Southeast 190 219 27,000 480 Climbing San Juan Center
06:36PM 17.6000 -66.2500 136° Southeast 210 242 27,000  Level San Juan Center
06:37PM 17.5333 -66.2000 144° Southeast 230 265 27,000  Level San Juan Center
06:38PM 17.4667 -66.1500 144° Southeast 250 288 27,000  Level San Juan Center
06:39PM 17.4167 -66.1000 136° Southeast 260 299 27,000  Level San Juan Center
06:40PM 17.3667 -66.0500 136° Southeast 270 311 27,000  Level San Juan Center
06:41PM 17.3000 -66.0000 144° Southeast 260 299 27,000  Level San Juan Center
06:42PM 17.2500 -65.9500 136° Southeast 270 311 27,000  Level San Juan Center
06:43PM 17.1833 -65.9000 144° Southeast 260 299 27,000  Level San Juan Center
06:44PM 17.1333 -65.8667 147° Southeast 270 311 27,000  Level San Juan Center
06:45PM 17.0667 -65.8167 144° Southeast 270 311 27,000  Level San Juan Center
06:46PM 17.0167 -65.7667 136° Southeast 260 299 27,000  Level San Juan Center
06:47PM 16.9500 -65.7167 144° Southeast 270 311 27,000  Level San Juan Center
06:48PM 16.9000 -65.6667 136° Southeast 260 299 27,000  Level San Juan Center
06:49PM 16.8333 -65.6167 144° Southeast 260 299 27,000  Level San Juan Center
06:50PM 16.7833 -65.5667 136° Southeast 260 299 27,000  Level San Juan Center
06:51PM 16.7167 -65.5167 144° Southeast 260 299 27,000  Level San Juan Center
06:52PM 16.6667 -65.4833 147° Southeast 270 311 27,000  Level San Juan Center
06:53PM 16.6000 -65.4333 144° Southeast 260 299 27,000  Level San Juan Center
06:54PM 16.5500 -65.3833 136° Southeast 270 311 27,000  Level San Juan Center
06:55PM 16.4833 -65.3333 144° Southeast 270 311 27,000  Level San Juan Center
06:56PM 16.4333 -65.2833 136° Southeast 260 299 27,000  Level San Juan Center
06:57PM 16.3667 -65.2333 144° Southeast 270 311 27,000  Level San Juan Center
06:58PM 16.3167 -65.1833 136° Southeast 260 299 27,000  Level San Juan Center
06:59PM 16.2500 -65.1500 154° Southeast 270 311 27,000  Level San Juan Center
07:00PM 16.1833 -65.1167 154° Southeast 260 299 27,000  Level San Juan Center
07:01PM 16.1333 -65.0667 136° Southeast 270 311 27,000  Level San Juan Center
07:02PM 16.0667 -65.0167 144° Southeast 270 311 27,000  Level San Juan Center
07:03PM 16.0167 -64.9667 136° Southeast 270 311 27,000  Level San Juan Center
07:04PM 15.9500 -64.9167 144° Southeast 270 311 27,000  Level San Juan Center
07:05PM 15.9000 -64.8667 136° Southeast 270 311 27,000  Level San Juan Center
07:06PM 15.8500 -64.8167 136° Southeast 280 322 27,000  Level San Juan Center
07:07PM 15.7833 -64.7667 144° Southeast 280 322 27,000  Level San Juan Center
07:08PM 15.7333 -64.7167 136° Southeast 270 311 27,000  Level San Juan Center
07:09PM 15.6667 -64.6667 144° Southeast 260 299 27,000  Level San Juan Center
07:10PM 15.6000 -64.6167 144° Southeast 270 311 27,000  Level San Juan Center
07:11PM 15.5500 -64.5667 136° Southeast 270 311 27,000  Level San Juan Center
07:12PM 15.4833 -64.5167 144° Southeast 260 299 27,000  Level San Juan Center
07:13PM 15.4333 -64.4667 136° Southeast 270 311 27,000  Level San Juan Center
07:14PM 15.3667 -64.4333 154° Southeast 270 311 27,000  Level San Juan Center
07:15PM 15.3167 -64.3833 136° Southeast 270 311 27,000  Level San Juan Center
07:16PM 15.2500 -64.3333 144° Southeast 280 322 27,000  Level San Juan Center
07:17PM 15.1833 -64.2833 144° Southeast 270 311 27,000  Level San Juan Center
07:19PM 15.1023 -64.2124 140° Southeast  Level FlightAware Approximate
07:26PM 14.6778 -63.9369 149° Southeast  Level FlightAware Approximate
07:27PM 14.6161 -63.8994 150° Southeast  Level FlightAware Approximate
07:28PM 14.5544 -63.8619 150° Southeast  Level FlightAware Approximate
07:29PM 14.4928 -63.8244 150° Southeast  Level FlightAware Approximate
07:30PM 14.4311 -63.7870 150° Southeast  Level FlightAware Approximate
07:31PM 14.3694 -63.7496 150° Southeast  Level FlightAware Approximate
07:32PM 14.3076 -63.7121 150° Southeast  Level FlightAware Approximate
07:33PM 14.2459 -63.6748 150° Southeast  Level FlightAware Approximate
07:34PM 14.1842 -63.6374 150° Southeast  Level FlightAware Approximate
07:35PM 14.1226 -63.5999 149° Southeast  Level FlightAware Approximate
07:36PM 14.0610 -63.5623 149° Southeast  Level FlightAware Approximate
07:37PM 13.9994 -63.5247 149° Southeast  Level FlightAware Approximate
07:38PM 13.9378 -63.4872 149° Southeast  Level FlightAware Approximate
07:39PM 13.8762 -63.4496 149° Southeast  Level FlightAware Approximate
07:40PM 13.8146 -63.4121 149° Southeast  Level FlightAware Approximate
07:41PM 13.7530 -63.3746 149° Southeast  Level FlightAware Approximate
07:42PM 13.6914 -63.3371 149° Southeast  Level FlightAware Approximate
07:43PM 13.6298 -63.2996 149° Southeast  Level FlightAware Approximate
07:44PM 13.5682 -63.2622 149° Southeast  Level FlightAware Approximate
07:45PM 13.5066 -63.2248 149° Southeast  Level FlightAware Approximate
07:46PM 13.4449 -63.1874 149° Southeast  Level FlightAware Approximate
07:47PM 13.3833 -63.1500 149° Southeast  Level FlightAware Approximate
07:48PM 13.3222 -63.1117 149° Southeast  Level FlightAware Approximate
07:49PM 13.2610 -63.0735 149° Southeast  Level FlightAware Approximate
07:50PM 13.2079 -63.0246 136° Southeast  Level FlightAware Approximate
07:51PM 13.1567 -62.9733 136° Southeast  Level FlightAware Approximate
07:52PM 13.1054 -62.9220 136° Southeast  Level FlightAware Approximate
07:53PM 13.0542 -62.8708 136° Southeast  Level FlightAware Approximate
07:54PM 13.0029 -62.8195 136° Southeast  Level FlightAware Approximate
07:55PM 12.9528 -62.7671 134° Southeast  Level FlightAware Approximate
07:56PM 12.9035 -62.7139 134° Southeast  Level FlightAware Approximate
07:57PM 12.8541 -62.6608 134° Southeast  Level FlightAware Approximate
07:58PM 12.8047 -62.6076 134° Southeast  Level FlightAware Approximate
07:59PM 12.7554 -62.5545 133° Southeast  Level FlightAware Approximate
08:00PM 12.7062 -62.5011 133° Southeast  Level FlightAware Approximate
08:01PM 12.6571 -62.4478 133° Southeast  Level FlightAware Approximate
08:02PM 12.6079 -62.3946 133° Southeast  Level FlightAware Approximate
08:03PM 12.5583 -62.3417 136° Southeast  Level FlightAware Approximate
08:04PM 12.5071 -62.2904 136° Southeast  Level FlightAware Approximate
08:05PM 12.4559 -62.2392 136° Southeast  Level FlightAware Approximate
08:06PM 12.4001 -62.1934 142° Southeast  Level FlightAware Approximate
08:07PM 12.3458 -62.1458 136° Southeast  Level FlightAware Approximate
08:08PM 12.2947 -62.0947 136° Southeast  Level FlightAware Approximate
08:09PM 12.2466 -62.0404 131° Southeast  Level FlightAware Approximate
08:10PM 12.1994 -61.9854 131° Southeast  Level FlightAware Approximate
08:11PM 12.1481 -61.9419 127° Southeast  Level FlightAware Approximate
08:12PM 12.1024 -61.8857 136° Southeast  Level FlightAware Approximate
08:13PM 12.0512 -61.8345 136° Southeast  Level FlightAware Approximate
08:14PM 12.0001 -61.7834 136° Southeast  Level FlightAware Approximate
08:15PM 12.0042 -61.7862 136° Southeast  Level Estimated
08:16PM 12.0000 -61.7833 136° Southeast  Level FlightAware Approximate
08:17PM 12.0042 -61.7862 136° Southeast  Level Estimated
08:18PM 12.0000 -61.7833 136° Southeast  Level FlightAware Approximate
08:19PM 12.0042 -61.7862 136° Southeast  Level Estimated
08:20PM 12.0000 -61.7833 136° Southeast  Level FlightAware Approximate
08:21PM 12.0042 -61.7862 136° Southeast  Level Estimated
08:22PM 12.0000 -61.7833 136° Southeast  Level FlightAware Approximate
08:23PM 12.0042 -61.7862 136° Southeast  Level Estimated
08:24PM 12.0000 -61.7833 136° Southeast  Level FlightAware Approximate
08:25PM 12.0042 -61.7862 136° Southeast  Level Estimated
08:26PM 12.0000 -61.7833 136° Southeast  Level FlightAware Approximate
08:27PM 12.0042 -61.7862 136° Southeast  Level Estimated